sensor_id;sensor_type;location;lat;lon;timestamp;pressure;altitude;pressure_sealevel;temperature;humidity
81509;BME280;70930;52.412;13.554;2023-07-31T00:01:28;100690.09;;;16.79;67.81
81509;BME280;70930;52.412;13.554;2023-07-31T00:04:13;100679.69;;;16.58;68.86
81509;BME280;70930;52.412;13.554;2023-07-31T00:06:59;100677.34;;;16.75;68.81
81509;BME280;70930;52.412;13.554;2023-07-31T00:09:44;100677.41;;;16.61;69.36
81509;BME280;70930;52.412;13.554;2023-07-31T00:12:29;100676.00;;;16.59;69.18
81509;BME280;70930;52.412;13.554;2023-07-31T00:15:15;100679.41;;;16.66;69.04
81509;BME280;70930;52.412;13.554;2023-07-31T00:18:00;100680.47;;;16.65;68.73
81509;BME280;70930;52.412;13.554;2023-07-31T00:20:46;100681.16;;;16.54;70.20
81509;BME280;70930;52.412;13.554;2023-07-31T00:23:32;100679.16;;;16.42;70.60
81509;BME280;70930;52.412;13.554;2023-07-31T00:26:17;100680.00;;;16.43;70.74
81509;BME280;70930;52.412;13.554;2023-07-31T00:29:03;100677.09;;;16.44;70.67
81509;BME280;70930;52.412;13.554;2023-07-31T00:31:48;100657.72;;;16.42;69.89
81509;BME280;70930;52.412;13.554;2023-07-31T00:34:33;100660.63;;;16.41;71.16
81509;BME280;70930;52.412;13.554;2023-07-31T00:37:19;100651.28;;;16.50;70.88
81509;BME280;70930;52.412;13.554;2023-07-31T00:40:05;100645.44;;;16.35;71.16
81509;BME280;70930;52.412;13.554;2023-07-31T00:42:50;100638.47;;;16.27;71.84
81509;BME280;70930;52.412;13.554;2023-07-31T00:45:36;100629.81;;;16.25;71.80
81509;BME280;70930;52.412;13.554;2023-07-31T00:48:21;100624.88;;;16.22;71.87
81509;BME280;70930;52.412;13.554;2023-07-31T00:51:08;100625.50;;;16.24;71.54
81509;BME280;70930;52.412;13.554;2023-07-31T00:53:53;100622.16;;;16.29;71.75
81509;BME280;70930;52.412;13.554;2023-07-31T00:56:41;100625.19;;;16.07;73.06
81509;BME280;70930;52.412;13.554;2023-07-31T00:59:29;100628.44;;;16.09;72.96
81509;BME280;70930;52.412;13.554;2023-07-31T01:02:15;100627.25;;;15.99;73.03
81509;BME280;70930;52.412;13.554;2023-07-31T01:05:01;100632.56;;;16.12;73.21
81509;BME280;70930;52.412;13.554;2023-07-31T01:07:59;100638.69;;;15.81;73.49
81509;BME280;70930;52.412;13.554;2023-07-31T01:10:55;100635.75;;;15.95;73.72
81509;BME280;70930;52.412;13.554;2023-07-31T01:13:44;100639.84;;;15.91;74.72
81509;BME280;70930;52.412;13.554;2023-07-31T01:16:30;100624.25;;;15.82;74.73
81509;BME280;70930;52.412;13.554;2023-07-31T01:19:18;100616.41;;;15.87;74.95
81509;BME280;70930;52.412;13.554;2023-07-31T01:22:20;100606.47;;;15.94;75.14
81509;BME280;70930;52.412;13.554;2023-07-31T01:25:33;100604.44;;;15.89;75.61
81509;BME280;70930;52.412;13.554;2023-07-31T01:28:27;100608.72;;;15.97;74.86
81509;BME280;70930;52.412;13.554;2023-07-31T01:31:22;100607.16;;;15.83;75.30
81509;BME280;70930;52.412;13.554;2023-07-31T01:34:09;100601.34;;;15.92;74.99
81509;BME280;70930;52.412;13.554;2023-07-31T01:36:56;100598.53;;;15.74;76.27
81509;BME280;70930;52.412;13.554;2023-07-31T01:39:42;100601.84;;;15.76;76.42
81509;BME280;70930;52.412;13.554;2023-07-31T01:42:27;100597.44;;;15.88;75.85
81509;BME280;70930;52.412;13.554;2023-07-31T01:45:12;100593.06;;;16.01;74.85
81509;BME280;70930;52.412;13.554;2023-07-31T01:47:58;100595.25;;;16.10;74.90
81509;BME280;70930;52.412;13.554;2023-07-31T01:50:43;100592.25;;;16.00;75.84
81509;BME280;70930;52.412;13.554;2023-07-31T01:53:30;100594.72;;;15.95;76.04
81509;BME280;70930;52.412;13.554;2023-07-31T01:56:16;100596.72;;;16.06;76.40
81509;BME280;70930;52.412;13.554;2023-07-31T01:59:01;100583.03;;;15.89;76.17
81509;BME280;70930;52.412;13.554;2023-07-31T02:01:47;100584.25;;;15.87;77.16
81509;BME280;70930;52.412;13.554;2023-07-31T02:04:32;100578.63;;;16.02;75.62
81509;BME280;70930;52.412;13.554;2023-07-31T02:07:18;100584.66;;;15.90;76.20
81509;BME280;70930;52.412;13.554;2023-07-31T02:10:03;100587.75;;;15.87;75.75
81509;BME280;70930;52.412;13.554;2023-07-31T02:12:49;100579.88;;;15.99;75.45
81509;BME280;70930;52.412;13.554;2023-07-31T02:15:34;100575.38;;;15.93;76.14
81509;BME280;70930;52.412;13.554;2023-07-31T02:18:20;100573.50;;;16.00;75.99
81509;BME280;70930;52.412;13.554;2023-07-31T02:21:05;100573.13;;;15.90;76.67
81509;BME280;70930;52.412;13.554;2023-07-31T02:23:51;100570.44;;;15.90;76.34
81509;BME280;70930;52.412;13.554;2023-07-31T02:26:36;100571.41;;;16.02;75.12
81509;BME280;70930;52.412;13.554;2023-07-31T02:29:21;100573.75;;;15.92;75.79
81509;BME280;70930;52.412;13.554;2023-07-31T02:32:07;100566.81;;;15.78;76.38
81509;BME280;70930;52.412;13.554;2023-07-31T02:34:52;100556.78;;;16.05;75.60
81509;BME280;70930;52.412;13.554;2023-07-31T02:37:38;100552.91;;;15.94;75.92
81509;BME280;70930;52.412;13.554;2023-07-31T02:40:24;100547.53;;;16.01;75.10
81509;BME280;70930;52.412;13.554;2023-07-31T02:43:09;100554.56;;;15.95;76.15
81509;BME280;70930;52.412;13.554;2023-07-31T02:45:55;100554.09;;;16.05;75.37
81509;BME280;70930;52.412;13.554;2023-07-31T02:48:40;100557.06;;;15.90;75.95
81509;BME280;70930;52.412;13.554;2023-07-31T02:51:26;100545.75;;;15.88;75.90
81509;BME280;70930;52.412;13.554;2023-07-31T02:54:11;100553.66;;;15.76;76.49
81509;BME280;70930;52.412;13.554;2023-07-31T02:56:56;100553.44;;;15.71;77.30
81509;BME280;70930;52.412;13.554;2023-07-31T02:59:42;100557.31;;;15.82;77.01
81509;BME280;70930;52.412;13.554;2023-07-31T03:02:27;100554.50;;;15.70;77.67
81509;BME280;70930;52.412;13.554;2023-07-31T03:05:13;100551.00;;;15.63;78.04
81509;BME280;70930;52.412;13.554;2023-07-31T03:07:58;100552.91;;;15.49;79.34
81509;BME280;70930;52.412;13.554;2023-07-31T03:10:44;100549.56;;;15.60;79.17
81509;BME280;70930;52.412;13.554;2023-07-31T03:13:29;100552.47;;;15.65;79.05
81509;BME280;70930;52.412;13.554;2023-07-31T03:16:14;100552.44;;;15.59;78.84
81509;BME280;70930;52.412;13.554;2023-07-31T03:19:00;100549.69;;;15.34;80.21
81509;BME280;70930;52.412;13.554;2023-07-31T03:21:45;100547.91;;;15.59;79.16
81509;BME280;70930;52.412;13.554;2023-07-31T03:24:30;100545.47;;;15.51;79.84
81509;BME280;70930;52.412;13.554;2023-07-31T03:27:16;100548.13;;;15.58;79.71
81509;BME280;70930;52.412;13.554;2023-07-31T03:30:02;100535.19;;;15.55;79.92
81509;BME280;70930;52.412;13.554;2023-07-31T03:32:48;100543.44;;;15.53;79.60
81509;BME280;70930;52.412;13.554;2023-07-31T03:35:33;100540.50;;;15.61;79.33
81509;BME280;70930;52.412;13.554;2023-07-31T03:38:19;100536.00;;;15.55;80.06
81509;BME280;70930;52.412;13.554;2023-07-31T03:41:04;100534.34;;;15.61;79.51
81509;BME280;70930;52.412;13.554;2023-07-31T03:43:51;100530.16;;;15.71;79.54
81509;BME280;70930;52.412;13.554;2023-07-31T03:46:42;100533.50;;;15.67;79.77
81509;BME280;70930;52.412;13.554;2023-07-31T03:49:28;100526.03;;;15.76;79.08
81509;BME280;70930;52.412;13.554;2023-07-31T03:52:13;100527.31;;;15.66;79.61
81509;BME280;70930;52.412;13.554;2023-07-31T03:54:59;100525.44;;;15.74;79.12
81509;BME280;70930;52.412;13.554;2023-07-31T03:57:44;100527.31;;;15.73;79.32
81509;BME280;70930;52.412;13.554;2023-07-31T04:00:30;100523.16;;;15.77;79.33
81509;BME280;70930;52.412;13.554;2023-07-31T04:03:15;100522.50;;;15.82;79.09
81509;BME280;70930;52.412;13.554;2023-07-31T04:06:00;100520.25;;;15.79;79.55
81509;BME280;70930;52.412;13.554;2023-07-31T04:08:46;100522.47;;;15.88;78.88
81509;BME280;70930;52.412;13.554;2023-07-31T04:11:31;100516.09;;;15.83;79.13
81509;BME280;70930;52.412;13.554;2023-07-31T04:14:17;100516.53;;;15.80;79.03
81509;BME280;70930;52.412;13.554;2023-07-31T04:17:02;100510.41;;;15.73;79.65
81509;BME280;70930;52.412;13.554;2023-07-31T04:19:47;100509.75;;;15.84;79.07
81509;BME280;70930;52.412;13.554;2023-07-31T04:22:33;100511.63;;;15.77;79.66
81509;BME280;70930;52.412;13.554;2023-07-31T04:25:18;100508.91;;;15.83;78.94
81509;BME280;70930;52.412;13.554;2023-07-31T04:28:04;100506.22;;;15.83;79.23
81509;BME280;70930;52.412;13.554;2023-07-31T04:30:49;100502.59;;;15.71;79.59
81509;BME280;70930;52.412;13.554;2023-07-31T04:33:34;100502.38;;;15.73;79.84
81509;BME280;70930;52.412;13.554;2023-07-31T04:36:20;100495.22;;;15.66;79.42
81509;BME280;70930;52.412;13.554;2023-07-31T04:39:05;100501.59;;;15.65;80.41
81509;BME280;70930;52.412;13.554;2023-07-31T04:41:51;100504.28;;;15.65;80.11
81509;BME280;70930;52.412;13.554;2023-07-31T04:44:36;100494.78;;;15.69;80.11
81509;BME280;70930;52.412;13.554;2023-07-31T04:47:22;100502.63;;;15.64;80.44
81509;BME280;70930;52.412;13.554;2023-07-31T04:50:07;100491.06;;;15.70;79.94
81509;BME280;70930;52.412;13.554;2023-07-31T04:52:53;100483.03;;;15.64;80.55
81509;BME280;70930;52.412;13.554;2023-07-31T04:55:38;100484.25;;;15.75;80.22
81509;BME280;70930;52.412;13.554;2023-07-31T04:58:23;100489.34;;;15.83;80.17
81509;BME280;70930;52.412;13.554;2023-07-31T05:01:09;100486.13;;;15.67;80.32
81509;BME280;70930;52.412;13.554;2023-07-31T05:03:54;100486.91;;;15.75;80.06
81509;BME280;70930;52.412;13.554;2023-07-31T05:06:40;100485.13;;;15.62;81.23
81509;BME280;70930;52.412;13.554;2023-07-31T05:09:26;100480.50;;;15.82;79.93
81509;BME280;70930;52.412;13.554;2023-07-31T05:12:11;100487.31;;;15.78;80.36
81509;BME280;70930;52.412;13.554;2023-07-31T05:14:57;100490.38;;;15.82;80.05
81509;BME280;70930;52.412;13.554;2023-07-31T05:17:42;100475.69;;;15.91;80.48
81509;BME280;70930;52.412;13.554;2023-07-31T05:20:27;100486.31;;;16.04;79.90
81509;BME280;70930;52.412;13.554;2023-07-31T05:23:13;100484.13;;;15.94;79.63
81509;BME280;70930;52.412;13.554;2023-07-31T05:26:05;100483.28;;;15.94;80.15
81509;BME280;70930;52.412;13.554;2023-07-31T05:28:51;100483.31;;;15.87;80.16
81509;BME280;70930;52.412;13.554;2023-07-31T05:31:37;100487.19;;;15.98;79.78
81509;BME280;70930;52.412;13.554;2023-07-31T05:34:23;100476.69;;;15.97;79.49
81509;BME280;70930;52.412;13.554;2023-07-31T05:37:10;100480.28;;;15.84;80.37
81509;BME280;70930;52.412;13.554;2023-07-31T05:39:56;100476.50;;;15.91;79.72
81509;BME280;70930;52.412;13.554;2023-07-31T05:42:42;100472.50;;;16.07;79.91
81509;BME280;70930;52.412;13.554;2023-07-31T05:45:27;100482.97;;;15.84;80.25
81509;BME280;70930;52.412;13.554;2023-07-31T05:48:13;100473.78;;;15.98;80.33
81509;BME280;70930;52.412;13.554;2023-07-31T05:50:58;100481.63;;;15.68;81.73
81509;BME280;70930;52.412;13.554;2023-07-31T05:53:43;100465.78;;;15.91;80.58
81509;BME280;70930;52.412;13.554;2023-07-31T05:56:29;100469.47;;;15.97;80.08
81509;BME280;70930;52.412;13.554;2023-07-31T05:59:16;100468.28;;;15.93;80.51
81509;BME280;70930;52.412;13.554;2023-07-31T06:02:01;100475.53;;;16.11;80.61
81509;BME280;70930;52.412;13.554;2023-07-31T06:04:47;100476.44;;;16.05;80.96
81509;BME280;70930;52.412;13.554;2023-07-31T06:07:32;100476.38;;;16.11;79.76
81509;BME280;70930;52.412;13.554;2023-07-31T06:10:18;100475.06;;;16.20;79.76
81509;BME280;70930;52.412;13.554;2023-07-31T06:13:04;100466.59;;;16.24;79.94
81509;BME280;70930;52.412;13.554;2023-07-31T06:15:49;100470.75;;;16.19;80.02
81509;BME280;70930;52.412;13.554;2023-07-31T06:18:34;100462.59;;;16.08;80.31
81509;BME280;70930;52.412;13.554;2023-07-31T06:21:20;100462.41;;;16.03;80.88
81509;BME280;70930;52.412;13.554;2023-07-31T06:24:05;100471.88;;;16.05;80.21
81509;BME280;70930;52.412;13.554;2023-07-31T06:26:51;100465.19;;;15.89;81.18
81509;BME280;70930;52.412;13.554;2023-07-31T06:29:36;100467.34;;;16.06;80.56
81509;BME280;70930;52.412;13.554;2023-07-31T06:32:22;100468.44;;;15.98;80.98
81509;BME280;70930;52.412;13.554;2023-07-31T06:35:08;100468.50;;;16.16;80.71
81509;BME280;70930;52.412;13.554;2023-07-31T06:37:53;100454.69;;;16.19;80.33
81509;BME280;70930;52.412;13.554;2023-07-31T06:40:38;100463.91;;;16.24;80.60
81509;BME280;70930;52.412;13.554;2023-07-31T06:43:24;100472.88;;;16.36;80.71
81509;BME280;70930;52.412;13.554;2023-07-31T06:46:09;100467.22;;;16.19;80.53
81509;BME280;70930;52.412;13.554;2023-07-31T06:48:56;100467.81;;;16.28;80.33
81509;BME280;70930;52.412;13.554;2023-07-31T06:51:41;100457.63;;;16.36;79.98
81509;BME280;70930;52.412;13.554;2023-07-31T06:54:27;100451.06;;;16.32;79.58
81509;BME280;70930;52.412;13.554;2023-07-31T06:57:12;100454.41;;;16.28;80.35
81509;BME280;70930;52.412;13.554;2023-07-31T06:59:58;100462.38;;;16.09;80.68
81509;BME280;70930;52.412;13.554;2023-07-31T07:02:44;100459.19;;;15.94;81.20
81509;BME280;70930;52.412;13.554;2023-07-31T07:05:29;100455.50;;;16.20;81.11
81509;BME280;70930;52.412;13.554;2023-07-31T07:08:14;100456.03;;;16.29;80.60
81509;BME280;70930;52.412;13.554;2023-07-31T07:11:00;100457.09;;;16.28;79.55
81509;BME280;70930;52.412;13.554;2023-07-31T07:13:45;100456.50;;;16.19;80.41
81509;BME280;70930;52.412;13.554;2023-07-31T07:16:32;100455.66;;;16.25;80.70
81509;BME280;70930;52.412;13.554;2023-07-31T07:19:17;100455.28;;;15.97;81.62
81509;BME280;70930;52.412;13.554;2023-07-31T07:22:03;100460.31;;;16.11;80.86
81509;BME280;70930;52.412;13.554;2023-07-31T07:24:48;100464.13;;;16.22;80.93
81509;BME280;70930;52.412;13.554;2023-07-31T07:27:34;100455.81;;;16.05;81.34
81509;BME280;70930;52.412;13.554;2023-07-31T07:30:19;100467.88;;;16.14;81.47
81509;BME280;70930;52.412;13.554;2023-07-31T07:33:05;100461.81;;;16.26;80.01
81509;BME280;70930;52.412;13.554;2023-07-31T07:35:50;100455.91;;;16.42;80.12
81509;BME280;70930;52.412;13.554;2023-07-31T07:38:36;100457.47;;;16.50;80.33
81509;BME280;70930;52.412;13.554;2023-07-31T07:41:22;100450.06;;;16.27;80.58
81509;BME280;70930;52.412;13.554;2023-07-31T07:44:08;100451.63;;;16.59;80.20
81509;BME280;70930;52.412;13.554;2023-07-31T07:46:53;100446.25;;;16.59;80.86
81509;BME280;70930;52.412;13.554;2023-07-31T07:49:38;100445.75;;;16.69;80.41
81509;BME280;70930;52.412;13.554;2023-07-31T07:52:24;100441.66;;;16.66;80.08
81509;BME280;70930;52.412;13.554;2023-07-31T07:55:09;100437.56;;;16.64;79.02
81509;BME280;70930;52.412;13.554;2023-07-31T07:57:55;100438.56;;;16.88;80.06
81509;BME280;70930;52.412;13.554;2023-07-31T08:00:40;100432.81;;;16.84;79.10
81509;BME280;70930;52.412;13.554;2023-07-31T08:03:26;100437.81;;;17.17;78.05
81509;BME280;70930;52.412;13.554;2023-07-31T08:06:11;100432.63;;;16.86;78.31
81509;BME280;70930;52.412;13.554;2023-07-31T08:08:57;100433.06;;;16.83;79.24
81509;BME280;70930;52.412;13.554;2023-07-31T08:11:42;100439.81;;;16.85;79.12
81509;BME280;70930;52.412;13.554;2023-07-31T08:14:28;100433.81;;;16.90;79.06
81509;BME280;70930;52.412;13.554;2023-07-31T08:17:13;100433.69;;;16.97;79.60
81509;BME280;70930;52.412;13.554;2023-07-31T08:19:58;100438.25;;;16.96;80.04
81509;BME280;70930;52.412;13.554;2023-07-31T08:22:44;100432.13;;;16.89;79.56
81509;BME280;70930;52.412;13.554;2023-07-31T08:25:29;100437.19;;;16.97;79.82
81509;BME280;70930;52.412;13.554;2023-07-31T08:28:15;100428.28;;;16.85;80.43
81509;BME280;70930;52.412;13.554;2023-07-31T08:31:00;100428.19;;;16.91;79.93
81509;BME280;70930;52.412;13.554;2023-07-31T08:33:45;100423.72;;;16.85;80.47
81509;BME280;70930;52.412;13.554;2023-07-31T08:36:31;100416.06;;;16.89;81.08
81509;BME280;70930;52.412;13.554;2023-07-31T08:39:16;100417.41;;;16.80;81.11
81509;BME280;70930;52.412;13.554;2023-07-31T08:42:02;100411.81;;;17.00;80.60
81509;BME280;70930;52.412;13.554;2023-07-31T08:44:47;100412.84;;;16.99;81.09
81509;BME280;70930;52.412;13.554;2023-07-31T08:47:33;100417.09;;;17.06;80.64
81509;BME280;70930;52.412;13.554;2023-07-31T08:50:20;100417.53;;;17.22;80.15
81509;BME280;70930;52.412;13.554;2023-07-31T08:53:06;100415.28;;;17.18;80.01
81509;BME280;70930;52.412;13.554;2023-07-31T08:55:53;100415.50;;;17.17;80.60
81509;BME280;70930;52.412;13.554;2023-07-31T08:58:41;100410.09;;;17.35;79.77
81509;BME280;70930;52.412;13.554;2023-07-31T09:01:29;100414.44;;;17.48;79.61
81509;BME280;70930;52.412;13.554;2023-07-31T09:04:16;100418.97;;;17.36;80.17
81509;BME280;70930;52.412;13.554;2023-07-31T09:07:04;100417.66;;;17.57;79.73
81509;BME280;70930;52.412;13.554;2023-07-31T09:09:50;100424.94;;;17.38;80.32
81509;BME280;70930;52.412;13.554;2023-07-31T09:12:36;100417.03;;;17.55;79.82
81509;BME280;70930;52.412;13.554;2023-07-31T09:15:23;100417.53;;;17.63;78.91
81509;BME280;70930;52.412;13.554;2023-07-31T09:18:09;100417.13;;;17.78;78.97
81509;BME280;70930;52.412;13.554;2023-07-31T09:21:05;100415.25;;;17.79;77.19
81509;BME280;70930;52.412;13.554;2023-07-31T09:23:51;100425.25;;;17.72;76.76
81509;BME280;70930;52.412;13.554;2023-07-31T09:26:39;100437.13;;;17.64;77.16
81509;BME280;70930;52.412;13.554;2023-07-31T09:29:25;100422.09;;;17.63;76.93
81509;BME280;70930;52.412;13.554;2023-07-31T09:32:17;100425.69;;;17.57;75.45
81509;BME280;70930;52.412;13.554;2023-07-31T09:35:19;100428.97;;;17.59;73.81
81509;BME280;70930;52.412;13.554;2023-07-31T09:38:12;100427.38;;;17.70;76.34
81509;BME280;70930;52.412;13.554;2023-07-31T09:40:58;100419.16;;;17.53;76.23
81509;BME280;70930;52.412;13.554;2023-07-31T09:43:53;100419.28;;;17.58;75.44
81509;BME280;70930;52.412;13.554;2023-07-31T09:46:38;100411.25;;;17.70;74.79
81509;BME280;70930;52.412;13.554;2023-07-31T09:49:25;100415.09;;;17.62;76.37
81509;BME280;70930;52.412;13.554;2023-07-31T09:52:11;100412.25;;;17.87;75.64
81509;BME280;70930;52.412;13.554;2023-07-31T09:54:57;100406.69;;;17.70;76.08
81509;BME280;70930;52.412;13.554;2023-07-31T09:57:45;100413.81;;;17.64;75.66
81509;BME280;70930;52.412;13.554;2023-07-31T10:00:31;100400.41;;;17.76;75.54
81509;BME280;70930;52.412;13.554;2023-07-31T10:03:17;100398.94;;;17.80;75.29
81509;BME280;70930;52.412;13.554;2023-07-31T10:06:04;100400.44;;;17.88;75.32
81509;BME280;70930;52.412;13.554;2023-07-31T10:08:51;100394.06;;;18.01;76.05
81509;BME280;70930;52.412;13.554;2023-07-31T10:11:46;100394.97;;;18.06;75.52
81509;BME280;70930;52.412;13.554;2023-07-31T10:14:36;100386.22;;;18.23;75.70
81509;BME280;70930;52.412;13.554;2023-07-31T10:17:23;100385.63;;;18.21;75.59
81509;BME280;70930;52.412;13.554;2023-07-31T10:20:09;100387.38;;;18.27;75.87
81509;BME280;70930;52.412;13.554;2023-07-31T10:22:56;100385.03;;;18.30;76.08
81509;BME280;70930;52.412;13.554;2023-07-31T10:25:41;100388.78;;;18.06;76.43
81509;BME280;70930;52.412;13.554;2023-07-31T10:28:29;100384.69;;;18.03;77.12
81509;BME280;70930;52.412;13.554;2023-07-31T10:31:15;100382.25;;;18.13;76.89
81509;BME280;70930;52.412;13.554;2023-07-31T10:34:01;100383.75;;;18.21;77.26
81509;BME280;70930;52.412;13.554;2023-07-31T10:36:48;100386.09;;;18.18;77.11
81509;BME280;70930;52.412;13.554;2023-07-31T10:39:36;100381.66;;;18.23;77.18
81509;BME280;70930;52.412;13.554;2023-07-31T10:42:28;100379.22;;;18.22;77.33
81509;BME280;70930;52.412;13.554;2023-07-31T10:45:24;100379.28;;;18.50;76.21
81509;BME280;70930;52.412;13.554;2023-07-31T10:48:14;100375.41;;;18.58;77.07
81509;BME280;70930;52.412;13.554;2023-07-31T10:51:00;100380.06;;;18.86;77.14
81509;BME280;70930;52.412;13.554;2023-07-31T10:53:45;100363.63;;;19.28;76.44
81509;BME280;70930;52.412;13.554;2023-07-31T10:56:37;100352.78;;;19.85;75.76
81509;BME280;70930;52.412;13.554;2023-07-31T10:59:26;100341.22;;;20.06;73.82
81509;BME280;70930;52.412;13.554;2023-07-31T11:02:27;100344.75;;;20.46;71.32
81509;BME280;70930;52.412;13.554;2023-07-31T11:05:15;100343.53;;;20.75;70.87
81509;BME280;70930;52.412;13.554;2023-07-31T11:08:10;100333.72;;;20.91;69.69
81509;BME280;70930;52.412;13.554;2023-07-31T11:13:52;100322.59;;;20.88;67.01
81509;BME280;70930;52.412;13.554;2023-07-31T11:16:41;100315.13;;;20.95;66.64
81509;BME280;70930;52.412;13.554;2023-07-31T11:19:26;100319.91;;;21.15;64.83
81509;BME280;70930;52.412;13.554;2023-07-31T11:22:11;100321.53;;;21.16;64.25
81509;BME280;70930;52.412;13.554;2023-07-31T11:24:57;100318.13;;;20.98;63.40
81509;BME280;70930;52.412;13.554;2023-07-31T11:27:43;100324.41;;;21.04;62.34
81509;BME280;70930;52.412;13.554;2023-07-31T11:30:28;100318.38;;;20.97;61.75
81509;BME280;70930;52.412;13.554;2023-07-31T11:33:14;100321.94;;;21.02;60.64
81509;BME280;70930;52.412;13.554;2023-07-31T11:35:59;100321.22;;;20.85;60.48
81509;BME280;70930;52.412;13.554;2023-07-31T11:38:45;100322.53;;;20.82;60.50
81509;BME280;70930;52.412;13.554;2023-07-31T11:41:30;100308.91;;;20.94;58.88
81509;BME280;70930;52.412;13.554;2023-07-31T11:44:15;100310.59;;;21.00;59.69
81509;BME280;70930;52.412;13.554;2023-07-31T11:47:01;100319.06;;;21.14;58.92
81509;BME280;70930;52.412;13.554;2023-07-31T11:49:47;100315.63;;;21.19;58.78
81509;BME280;70930;52.412;13.554;2023-07-31T11:52:40;100316.50;;;21.24;59.54
81509;BME280;70930;52.412;13.554;2023-07-31T11:55:27;100320.97;;;21.14;59.02
81509;BME280;70930;52.412;13.554;2023-07-31T11:58:13;100310.91;;;21.04;59.59
81509;BME280;70930;52.412;13.554;2023-07-31T12:01:00;100309.31;;;21.08;59.17
81509;BME280;70930;52.412;13.554;2023-07-31T12:03:47;100311.97;;;21.03;58.52
81509;BME280;70930;52.412;13.554;2023-07-31T12:06:34;100325.13;;;20.72;58.95
81509;BME280;70930;52.412;13.554;2023-07-31T12:09:19;100314.69;;;20.81;60.13
81509;BME280;70930;52.412;13.554;2023-07-31T12:12:08;100314.13;;;21.06;58.96
81509;BME280;70930;52.412;13.554;2023-07-31T12:14:54;100309.59;;;21.06;59.15
81509;BME280;70930;52.412;13.554;2023-07-31T12:17:40;100307.63;;;21.02;59.85
81509;BME280;70930;52.412;13.554;2023-07-31T12:20:25;100303.72;;;20.88;60.60
81509;BME280;70930;52.412;13.554;2023-07-31T12:23:20;100300.88;;;20.99;60.00
81509;BME280;70930;52.412;13.554;2023-07-31T12:26:16;100297.75;;;21.13;59.88
81509;BME280;70930;52.412;13.554;2023-07-31T12:29:01;100295.50;;;21.04;59.64
81509;BME280;70930;52.412;13.554;2023-07-31T12:31:47;100291.19;;;21.03;59.88
81509;BME280;70930;52.412;13.554;2023-07-31T12:34:42;100294.81;;;20.87;60.47
81509;BME280;70930;52.412;13.554;2023-07-31T12:37:28;100297.53;;;20.65;60.43
81509;BME280;70930;52.412;13.554;2023-07-31T12:40:14;100295.97;;;20.69;60.53
81509;BME280;70930;52.412;13.554;2023-07-31T12:43:02;100293.63;;;20.78;60.46
81509;BME280;70930;52.412;13.554;2023-07-31T12:45:49;100289.78;;;20.74;60.68
81509;BME280;70930;52.412;13.554;2023-07-31T12:48:34;100280.13;;;20.78;60.57
81509;BME280;70930;52.412;13.554;2023-07-31T12:51:20;100274.53;;;20.84;60.13
81509;BME280;70930;52.412;13.554;2023-07-31T12:54:06;100263.75;;;21.17;60.32
81509;BME280;70930;52.412;13.554;2023-07-31T12:56:52;100267.88;;;21.24;59.82
81509;BME280;70930;52.412;13.554;2023-07-31T12:59:37;100266.47;;;21.49;58.93
81509;BME280;70930;52.412;13.554;2023-07-31T13:02:23;100258.09;;;21.88;58.02
81509;BME280;70930;52.412;13.554;2023-07-31T13:05:08;100260.53;;;22.37;57.18
81509;BME280;70930;52.412;13.554;2023-07-31T13:07:54;100265.44;;;22.50;55.70
81509;BME280;70930;52.412;13.554;2023-07-31T13:10:39;100256.78;;;21.95;55.92
81509;BME280;70930;52.412;13.554;2023-07-31T13:13:25;100266.75;;;21.47;57.29
81509;BME280;70930;52.412;13.554;2023-07-31T13:16:10;100258.16;;;21.23;58.39
81509;BME280;70930;52.412;13.554;2023-07-31T13:18:56;100257.75;;;21.09;58.64
81509;BME280;70930;52.412;13.554;2023-07-31T13:21:41;100256.06;;;21.30;58.69
81509;BME280;70930;52.412;13.554;2023-07-31T13:24:26;100259.00;;;21.29;58.59
81509;BME280;70930;52.412;13.554;2023-07-31T13:27:12;100253.59;;;21.61;58.22
81509;BME280;70930;52.412;13.554;2023-07-31T13:29:57;100250.50;;;21.85;58.49
81509;BME280;70930;52.412;13.554;2023-07-31T13:32:43;100251.91;;;21.50;57.71
81509;BME280;70930;52.412;13.554;2023-07-31T13:35:28;100244.94;;;21.54;57.72
81509;BME280;70930;52.412;13.554;2023-07-31T13:38:13;100247.25;;;21.40;58.70
81509;BME280;70930;52.412;13.554;2023-07-31T13:40:59;100241.44;;;21.59;58.66
81509;BME280;70930;52.412;13.554;2023-07-31T13:43:44;100247.50;;;21.39;58.31
81509;BME280;70930;52.412;13.554;2023-07-31T13:46:29;100239.31;;;21.66;58.82
81509;BME280;70930;52.412;13.554;2023-07-31T13:49:15;100237.97;;;22.16;56.98
81509;BME280;70930;52.412;13.554;2023-07-31T13:52:01;100243.66;;;22.19;56.81
81509;BME280;70930;52.412;13.554;2023-07-31T13:54:47;100221.00;;;22.30;56.42
81509;BME280;70930;52.412;13.554;2023-07-31T13:57:32;100223.47;;;22.42;56.08
81509;BME280;70930;52.412;13.554;2023-07-31T14:00:18;100216.13;;;22.27;56.08
81509;BME280;70930;52.412;13.554;2023-07-31T14:03:04;100220.75;;;22.47;55.96
81509;BME280;70930;52.412;13.554;2023-07-31T14:05:51;100212.66;;;22.47;56.39
81509;BME280;70930;52.412;13.554;2023-07-31T14:08:37;100212.13;;;22.50;55.39
81509;BME280;70930;52.412;13.554;2023-07-31T14:11:22;100217.06;;;22.84;56.51
81509;BME280;70930;52.412;13.554;2023-07-31T14:14:09;100211.34;;;22.60;55.54
81509;BME280;70930;52.412;13.554;2023-07-31T14:16:55;100212.13;;;22.50;55.93
81509;BME280;70930;52.412;13.554;2023-07-31T14:19:40;100204.53;;;22.47;56.35
81509;BME280;70930;52.412;13.554;2023-07-31T14:22:29;100209.53;;;22.91;55.82